createdAt,value
2023-04-10T00:01:41.053Z,7.30
2023-04-10T00:04:15.424Z,6.20
2023-04-10T00:06:49.629Z,5.10
2023-04-10T00:09:23.150Z,3.30
2023-04-10T00:11:57.326Z,6.50
2023-04-10T00:14:31.246Z,3.20
2023-04-10T00:17:04.947Z,3.40
2023-04-10T00:19:39.180Z,5.40
2023-04-10T00:22:12.795Z,7.00
2023-04-10T00:24:46.511Z,4.40
2023-04-10T00:27:20.489Z,6.40
2023-04-10T00:29:54.161Z,6.60
2023-04-10T00:32:28.052Z,4.60
2023-04-10T00:35:02.085Z,2.20
2023-04-10T00:37:36.237Z,4.00
2023-04-10T00:40:11.617Z,3.70
2023-04-10T00:42:45.149Z,3.00
2023-04-10T00:45:19.003Z,2.90
2023-04-10T00:47:53.043Z,4.30
2023-04-10T00:50:26.901Z,6.30
2023-04-10T00:53:00.902Z,7.80
2023-04-10T00:55:34.926Z,3.40
2023-04-10T00:58:08.681Z,3.80
2023-04-10T01:00:42.817Z,3.40
2023-04-10T01:03:17.912Z,3.80
2023-04-10T01:05:57.729Z,8.10
2023-04-10T01:08:36.863Z,4.00
2023-04-10T01:11:15.267Z,4.80
2023-04-10T01:13:52.771Z,6.50
2023-04-10T01:16:29.540Z,10.70
2023-04-10T01:19:07.017Z,4.30
2023-04-10T01:21:42.123Z,5.50
2023-04-10T01:24:30.317Z,11.10
2023-04-10T01:27:14.693Z,3.70
2023-04-10T01:29:51.256Z,12.00
2023-04-10T01:32:26.173Z,3.70
2023-04-10T01:35:01.594Z,3.30
2023-04-10T01:37:36.413Z,4.80
2023-04-10T01:40:13.555Z,4.90
2023-04-10T01:42:49.740Z,8.30
2023-04-10T01:45:26.418Z,11.60
2023-04-10T01:48:00.704Z,4.60
2023-04-10T01:50:35.746Z,5.30
2023-04-10T01:53:10.731Z,6.70
2023-04-10T01:55:45.752Z,8.40
2023-04-10T01:58:19.734Z,4.30
2023-04-10T02:00:53.421Z,9.20
2023-04-10T02:03:27.104Z,4.30
2023-04-10T02:06:20.123Z,9.50
2023-04-10T02:08:57.598Z,5.50
2023-04-10T02:11:39.471Z,7.60
2023-04-10T02:14:15.799Z,11.60
2023-04-10T02:16:50.266Z,6.00
2023-04-10T02:19:25.062Z,12.20
2023-04-10T02:21:59.212Z,8.30
2023-04-10T02:24:33.788Z,4.70
2023-04-10T02:27:07.898Z,7.30
2023-04-10T02:29:41.496Z,6.30
2023-04-10T02:32:17.820Z,4.50
2023-04-10T02:34:52.018Z,8.80
2023-04-10T02:37:26.243Z,8.30
2023-04-10T02:39:59.786Z,7.10
2023-04-10T02:42:33.661Z,7.40
2023-04-10T02:45:11.334Z,10.70
2023-04-10T02:47:45.452Z,5.90
2023-04-10T02:50:19.535Z,8.80
2023-04-10T02:52:53.423Z,6.70
2023-04-10T02:55:26.935Z,16.00
2023-04-10T02:58:00.869Z,7.50
2023-04-10T03:00:34.838Z,5.90
2023-04-10T03:03:09.235Z,5.70
2023-04-10T03:05:43.008Z,7.70
2023-04-10T03:08:16.620Z,14.10
2023-04-10T03:10:51.056Z,10.10
2023-04-10T03:13:25.323Z,7.70
2023-04-10T03:15:59.587Z,4.80
2023-04-10T03:18:35.161Z,6.80
2023-04-10T03:21:09.885Z,5.50
2023-04-10T03:23:43.618Z,9.80
2023-04-10T03:26:17.483Z,7.40
2023-04-10T03:28:51.351Z,5.90
2023-04-10T03:31:26.119Z,11.60
2023-04-10T03:34:01.219Z,7.60
2023-04-10T03:36:35.757Z,8.70
2023-04-10T03:39:09.671Z,7.80
2023-04-10T03:41:44.481Z,9.40
2023-04-10T03:44:18.736Z,10.40
2023-04-10T03:46:53.599Z,9.10
2023-04-10T03:49:27.775Z,7.10
2023-04-10T03:52:04.271Z,10.70
2023-04-10T03:54:41.233Z,10.20
2023-04-10T03:59:46.895Z,10.20
2023-04-10T04:02:21.289Z,8.10
2023-04-10T04:04:57.634Z,5.50
2023-04-10T04:07:31.379Z,7.10
2023-04-10T04:10:05.555Z,6.60
2023-04-10T04:12:39.530Z,7.10
2023-04-10T04:15:14.403Z,8.00
2023-04-10T04:17:48.530Z,9.20
2023-04-10T04:20:22.346Z,8.50
2023-04-10T04:22:56.059Z,11.30
2023-04-10T04:25:30.013Z,9.80
2023-04-10T04:28:03.905Z,7.10
2023-04-10T04:30:38.579Z,10.10
2023-04-10T04:33:12.406Z,9.20
2023-04-10T04:35:46.442Z,11.90
2023-04-10T04:38:20.607Z,9.90
2023-04-10T04:40:54.217Z,16.20
2023-04-10T04:43:27.997Z,8.20
2023-04-10T04:46:02.877Z,9.50
2023-04-10T04:48:37.273Z,7.70
2023-04-10T04:51:11.913Z,6.20
2023-04-10T04:53:45.603Z,10.80
2023-04-10T04:56:19.591Z,9.90
2023-04-10T04:58:53.405Z,8.80
2023-04-10T05:01:27.859Z,21.50
2023-04-10T05:04:01.832Z,10.30
2023-04-10T05:06:35.909Z,8.40
2023-04-10T05:09:10.150Z,8.70
2023-04-10T05:11:43.726Z,14.10
2023-04-10T05:14:17.453Z,13.00
2023-04-10T05:16:51.204Z,10.50
2023-04-10T05:19:25.209Z,11.30
2023-04-10T05:21:58.868Z,14.90
2023-04-10T05:24:32.784Z,11.70
2023-04-10T05:27:07.500Z,10.40
2023-04-10T05:29:40.975Z,11.60
2023-04-10T05:32:15.810Z,19.10
2023-04-10T05:34:49.331Z,9.90
2023-04-10T05:37:23.136Z,9.60
2023-04-10T05:39:58.441Z,10.00
2023-04-10T05:42:32.046Z,12.30
2023-04-10T05:45:06.004Z,8.90
2023-04-10T05:47:40.323Z,10.10
2023-04-10T05:50:14.455Z,11.70
2023-04-10T05:52:49.113Z,11.40
2023-04-10T05:55:23.642Z,9.00
2023-04-10T05:57:57.640Z,7.80
2023-04-10T06:00:31.225Z,10.70
2023-04-10T06:03:05.213Z,8.00
2023-04-10T06:05:39.417Z,8.60
2023-04-10T06:08:13.629Z,6.20
2023-04-10T06:10:47.976Z,9.20
2023-04-10T06:13:22.154Z,15.10
2023-04-10T06:15:56.069Z,6.60
2023-04-10T06:18:30.258Z,8.00
2023-04-10T06:21:03.851Z,5.70
2023-04-10T06:23:37.720Z,8.90
2023-04-10T06:26:11.899Z,7.40
2023-04-10T06:28:46.101Z,6.50
2023-04-10T06:31:20.299Z,7.30
2023-04-10T06:33:54.261Z,7.00
2023-04-10T06:36:28.150Z,6.10
2023-04-10T06:39:03.118Z,9.20
2023-04-10T06:41:36.877Z,5.10
2023-04-10T06:44:10.616Z,8.00
2023-04-10T06:46:44.267Z,14.40
2023-04-10T06:49:18.407Z,6.00
2023-04-10T06:51:52.942Z,8.10
2023-04-10T06:54:26.973Z,13.60
2023-04-10T06:57:01.146Z,6.10
2023-04-10T06:59:36.114Z,11.10
2023-04-10T07:02:09.817Z,5.20
2023-04-10T07:04:43.998Z,5.60
2023-04-10T07:07:19.682Z,7.00
2023-04-10T07:09:53.848Z,7.60
2023-04-10T07:12:27.533Z,10.90
2023-04-10T07:15:01.134Z,17.70
2023-04-10T07:17:34.930Z,10.80
2023-04-10T07:20:10.678Z,13.20
2023-04-10T07:22:44.431Z,13.60
2023-04-10T07:25:18.785Z,7.40
2023-04-10T07:27:53.094Z,4.50
2023-04-10T07:30:26.934Z,10.20
2023-04-10T07:33:01.471Z,8.40
2023-04-10T07:35:35.624Z,6.60
2023-04-10T07:38:09.383Z,9.00
2023-04-10T07:40:44.932Z,6.10
2023-04-10T07:43:23.599Z,8.10
2023-04-10T07:45:57.751Z,9.40
2023-04-10T07:48:32.150Z,10.80
2023-04-10T07:51:06.238Z,10.60
2023-04-10T07:53:40.299Z,8.90
2023-04-10T07:56:19.802Z,8.10
2023-04-10T07:58:56.287Z,11.30
2023-04-10T08:01:30.686Z,11.20
2023-04-10T08:04:06.637Z,12.80
2023-04-10T08:06:41.351Z,10.30
2023-04-10T08:09:15.252Z,9.20
2023-04-10T08:11:49.556Z,12.80
2023-04-10T08:14:23.543Z,10.20
2023-04-10T08:16:58.154Z,13.00
2023-04-10T08:19:33.122Z,10.30
2023-04-10T08:22:08.197Z,13.40
2023-04-10T08:24:42.443Z,8.50
2023-04-10T08:27:21.619Z,10.20
2023-04-10T08:29:55.988Z,9.40
2023-04-10T08:32:31.037Z,12.90
2023-04-10T08:35:05.572Z,14.40
2023-04-10T08:37:39.407Z,14.50
2023-04-10T08:40:14.622Z,11.20
2023-04-10T08:42:48.677Z,13.10
2023-04-10T08:45:22.517Z,8.40
2023-04-10T08:47:59.309Z,8.90
2023-04-10T08:50:36.545Z,19.50
2023-04-10T08:53:13.315Z,11.40
2023-04-10T08:58:20.109Z,15.50
2023-04-10T09:00:54.127Z,9.90
2023-04-10T09:03:28.300Z,11.00
2023-04-10T09:06:04.490Z,10.60
2023-04-10T09:08:38.398Z,9.50
2023-04-10T09:11:13.732Z,9.70
2023-04-10T09:13:48.404Z,9.30
2023-04-10T09:16:22.294Z,9.40
2023-04-10T09:18:56.583Z,10.40
2023-04-10T09:21:30.363Z,9.30
2023-04-10T09:24:05.390Z,7.50
2023-04-10T09:26:40.473Z,8.80
2023-04-10T09:29:14.301Z,6.40
2023-04-10T09:31:51.359Z,7.80
2023-04-10T09:34:29.870Z,15.10
2023-04-10T09:37:09.716Z,6.40
2023-04-10T09:39:44.397Z,7.90
2023-04-10T09:42:18.647Z,9.10
2023-04-10T09:44:56.116Z,7.40
2023-04-10T09:47:31.294Z,11.90
2023-04-10T09:50:05.652Z,7.30
2023-04-10T09:52:39.891Z,9.00
2023-04-10T09:55:21.401Z,6.50
2023-04-10T09:57:56.348Z,8.70
2023-04-10T10:00:33.460Z,9.80
2023-04-10T10:03:12.421Z,9.00
2023-04-10T10:05:47.557Z,9.30
2023-04-10T10:08:21.640Z,8.80
2023-04-10T10:10:57.376Z,7.60
2023-04-10T10:13:35.583Z,7.80
2023-04-10T10:16:17.122Z,6.20
2023-04-10T10:18:57.191Z,8.70
2023-04-10T10:21:34.456Z,12.10
2023-04-10T10:24:11.793Z,9.70
2023-04-10T10:26:47.211Z,6.50
2023-04-10T10:29:21.561Z,7.90
2023-04-10T10:31:57.321Z,8.70
2023-04-10T10:34:31.341Z,7.50
2023-04-10T10:37:06.661Z,9.40
2023-04-10T10:39:50.856Z,11.00
2023-04-10T10:42:28.490Z,13.10
2023-04-10T10:45:10.295Z,11.80
2023-04-10T10:47:50.151Z,17.30
2023-04-10T10:50:25.130Z,11.10
2023-04-10T10:52:59.803Z,13.30
2023-04-10T10:55:44.768Z,11.50
2023-04-10T10:58:20.131Z,12.40
2023-04-10T11:01:12.368Z,9.70
2023-04-10T11:03:46.963Z,15.00
2023-04-10T11:06:22.388Z,13.70
2023-04-10T11:08:56.885Z,10.80
2023-04-10T11:11:31.643Z,15.90
2023-04-10T11:14:21.937Z,8.60
2023-04-10T11:16:55.882Z,15.80
2023-04-10T11:19:29.885Z,10.20
2023-04-10T11:22:11.115Z,9.90
2023-04-10T11:25:02.844Z,14.00
2023-04-10T11:27:49.383Z,12.00
2023-04-10T11:30:34.774Z,11.20
2023-04-10T11:33:09.193Z,8.30
2023-04-10T11:35:44.193Z,9.20
2023-04-10T11:38:29.111Z,11.70
2023-04-10T11:41:07.560Z,8.50
2023-04-10T11:43:42.319Z,15.80
2023-04-10T11:46:19.024Z,7.80
2023-04-10T11:48:57.109Z,8.00
2023-04-10T11:51:35.216Z,11.60
2023-04-10T11:54:24.213Z,14.50
2023-04-10T11:57:04.278Z,8.90
2023-04-10T11:59:40.284Z,9.60
2023-04-10T12:02:19.646Z,10.30
2023-04-10T12:05:01.552Z,12.30
2023-04-10T12:07:35.850Z,11.20
2023-04-10T12:10:11.572Z,9.40
2023-04-10T12:12:48.483Z,12.30
2023-04-10T12:15:33.121Z,14.10
2023-04-10T12:18:07.953Z,10.20
2023-04-10T12:20:41.995Z,13.80
2023-04-10T12:23:16.372Z,10.50
2023-04-10T12:25:52.547Z,11.30
2023-04-10T12:28:26.527Z,10.10
2023-04-10T12:31:00.907Z,11.90
2023-04-10T12:33:35.116Z,11.70
2023-04-10T12:36:09.913Z,13.50
2023-04-10T12:38:45.509Z,19.90
2023-04-10T12:41:26.734Z,13.30
2023-04-10T12:44:11.702Z,13.00
2023-04-10T12:46:46.549Z,15.40
2023-04-10T12:49:21.054Z,12.40
2023-04-10T12:51:55.547Z,10.00
2023-04-10T12:54:33.732Z,9.70
2023-04-10T12:57:09.809Z,10.80
2023-04-10T12:59:46.296Z,9.60
2023-04-10T13:02:22.013Z,12.80
2023-04-10T13:04:56.327Z,7.50
2023-04-10T13:07:30.582Z,11.40
2023-04-10T13:10:05.297Z,9.80
2023-04-10T13:12:41.565Z,11.70
2023-04-10T13:15:15.550Z,10.40
2023-04-10T13:17:50.914Z,10.00
2023-04-10T13:20:25.909Z,11.80
2023-04-10T13:22:59.931Z,14.90
2023-04-10T13:25:35.458Z,13.90
2023-04-10T13:28:12.433Z,12.50
2023-04-10T13:30:48.245Z,16.90
2023-04-10T13:33:25.447Z,15.20
2023-04-10T13:35:59.383Z,13.90
2023-04-10T13:38:34.578Z,12.00
2023-04-10T13:41:09.375Z,12.60
2023-04-10T13:43:44.078Z,16.20
2023-04-10T13:46:18.078Z,17.30
2023-04-10T13:48:52.340Z,12.70
2023-04-10T13:51:26.108Z,10.50
2023-04-10T13:54:00.403Z,13.80
2023-04-10T13:56:34.426Z,9.50
2023-04-10T13:59:08.927Z,11.10
2023-04-10T14:01:45.160Z,8.60
2023-04-10T14:04:19.217Z,15.60
2023-04-10T14:06:58.182Z,10.20
2023-04-10T14:09:31.915Z,10.30
2023-04-10T14:12:06.245Z,11.70
2023-04-10T14:14:40.221Z,11.30
2023-04-10T14:17:16.003Z,9.80
2023-04-10T14:19:52.063Z,12.70
2023-04-10T14:22:26.190Z,11.00
2023-04-10T14:25:11.719Z,10.80
2023-04-10T14:27:48.015Z,13.90
2023-04-10T14:30:21.905Z,15.10
2023-04-10T14:32:56.205Z,13.80
2023-04-10T14:35:30.252Z,15.80
2023-04-10T14:38:07.836Z,14.10
2023-04-10T14:40:50.498Z,15.00
2023-04-10T14:43:25.148Z,18.10
2023-04-10T14:46:00.113Z,19.80
2023-04-10T14:48:33.955Z,15.20
2023-04-10T14:51:13.140Z,13.40
2023-04-10T14:53:47.700Z,12.40
2023-04-10T14:56:22.944Z,11.70
2023-04-10T14:58:57.192Z,12.60
2023-04-10T15:01:37.642Z,10.90
2023-04-10T15:04:12.322Z,12.30
2023-04-10T15:07:12.933Z,14.70
2023-04-10T15:09:49.313Z,13.70
2023-04-10T15:14:59.015Z,15.90
2023-04-10T15:17:36.882Z,13.50
2023-04-10T15:20:15.130Z,15.50
2023-04-10T15:22:50.259Z,13.00
2023-04-10T15:25:24.149Z,17.10
2023-04-10T15:28:01.927Z,16.00
2023-04-10T15:30:35.973Z,16.30
2023-04-10T15:33:10.228Z,12.60
2023-04-10T15:35:44.777Z,12.90
2023-04-10T15:38:18.950Z,15.50
2023-04-10T15:40:53.012Z,16.20
2023-04-10T15:43:31.603Z,16.30
2023-04-10T15:46:05.522Z,14.00
2023-04-10T15:48:40.208Z,18.00
2023-04-10T15:51:19.084Z,13.80
2023-04-10T15:54:05.268Z,21.80
2023-04-10T15:56:42.342Z,16.90
2023-04-10T15:59:17.695Z,15.40
2023-04-10T16:01:52.929Z,14.40
2023-04-10T16:04:27.695Z,14.80
2023-04-10T16:07:02.731Z,15.50
2023-04-10T16:09:38.529Z,17.50
2023-04-10T16:12:31.140Z,17.40
2023-04-10T16:15:15.518Z,19.10
2023-04-10T16:17:52.992Z,19.30
2023-04-10T16:20:27.720Z,16.90
2023-04-10T16:23:02.824Z,21.40
2023-04-10T16:25:36.525Z,15.70
2023-04-10T16:28:10.524Z,17.40
2023-04-10T16:30:47.763Z,17.10
2023-04-10T16:33:22.757Z,18.40
2023-04-10T16:35:59.202Z,20.20
2023-04-10T16:38:35.362Z,19.60
2023-04-10T16:41:24.190Z,19.30
2023-04-10T16:44:01.824Z,16.00
2023-04-10T16:46:36.687Z,18.00
2023-04-10T16:49:19.010Z,14.40
2023-04-10T16:51:54.471Z,16.60
2023-04-10T16:54:37.430Z,15.20
2023-04-10T16:57:26.827Z,15.70
2023-04-10T17:00:02.018Z,20.80
2023-04-10T17:02:38.849Z,20.00
2023-04-10T17:05:14.739Z,20.00
2023-04-10T17:07:50.202Z,18.70
2023-04-10T17:10:32.228Z,19.90
2023-04-10T17:13:18.240Z,18.90
2023-04-10T17:16:07.047Z,21.80
2023-04-10T17:18:41.277Z,17.30
2023-04-10T17:21:28.260Z,16.50
2023-04-10T17:24:14.350Z,18.80
2023-04-10T17:26:52.639Z,17.50
2023-04-10T17:29:27.706Z,16.70
2023-04-10T17:32:16.231Z,20.10
2023-04-10T17:35:01.075Z,17.40
2023-04-10T17:37:37.687Z,24.10
2023-04-10T17:40:16.089Z,18.30
2023-04-10T17:42:52.712Z,20.30
2023-04-10T17:45:48.932Z,18.90
2023-04-10T17:48:29.644Z,16.00
2023-04-10T17:51:14.959Z,17.10
2023-04-10T17:53:50.170Z,18.50
2023-04-10T17:56:31.841Z,21.80
2023-04-10T17:59:09.568Z,25.60
2023-04-10T18:01:46.116Z,22.80
2023-04-10T18:04:21.579Z,23.00
2023-04-10T18:06:58.970Z,21.80
2023-04-10T18:09:32.986Z,23.50
2023-04-10T18:12:20.544Z,18.90
2023-04-10T18:14:54.926Z,18.60
2023-04-10T18:17:30.214Z,20.20
2023-04-10T18:20:04.511Z,21.10
2023-04-10T18:22:40.686Z,19.50
2023-04-10T18:25:20.292Z,21.60
2023-04-10T18:28:14.446Z,18.80
2023-04-10T18:30:57.185Z,18.00
2023-04-10T18:33:32.915Z,20.50
2023-04-10T18:38:45.962Z,24.20
2023-04-10T18:41:24.340Z,20.00
2023-04-10T18:44:05.099Z,19.80
2023-04-10T18:46:48.639Z,19.00
2023-04-10T18:49:29.636Z,18.40
2023-04-10T18:52:05.439Z,18.00
2023-04-10T18:54:40.878Z,21.20
2023-04-10T18:57:15.947Z,25.60
2023-04-10T18:59:52.069Z,19.50
2023-04-10T19:02:31.798Z,18.80
2023-04-10T19:05:18.831Z,19.20
2023-04-10T19:08:04.719Z,20.40
2023-04-10T19:10:41.503Z,17.70
2023-04-10T19:13:24.174Z,16.50
2023-04-10T19:16:15.490Z,17.40
2023-04-10T19:18:53.134Z,21.00
2023-04-10T19:21:29.413Z,20.60
2023-04-10T19:24:04.959Z,20.30
2023-04-10T19:26:42.849Z,22.50
2023-04-10T19:29:18.551Z,22.70
2023-04-10T19:31:55.002Z,23.90
2023-04-10T19:34:30.254Z,18.70
2023-04-10T19:37:08.375Z,21.80
2023-04-10T19:39:47.846Z,19.00
2023-04-10T19:42:28.490Z,18.70
2023-04-10T19:45:05.121Z,21.10
2023-04-10T19:47:44.383Z,18.10
2023-04-10T19:50:21.890Z,16.70
2023-04-10T19:52:59.478Z,17.60
2023-04-10T19:55:42.469Z,18.80
2023-04-10T19:58:35.906Z,17.00
2023-04-10T20:01:21.061Z,17.80
2023-04-10T20:03:59.616Z,20.70
2023-04-10T20:06:44.136Z,21.30
2023-04-10T20:09:22.773Z,19.50
2023-04-10T20:11:57.678Z,21.90
2023-04-10T20:14:35.418Z,21.50
2023-04-10T20:17:12.846Z,20.50
2023-04-10T20:19:47.471Z,20.00
2023-04-10T20:22:24.553Z,22.20
2023-04-10T20:24:58.826Z,18.70
2023-04-10T20:27:34.032Z,20.70
2023-04-10T20:30:13.077Z,21.20
2023-04-10T20:32:48.227Z,19.60
2023-04-10T20:35:25.371Z,20.80
2023-04-10T20:37:58.976Z,18.10
2023-04-10T20:40:33.447Z,19.90
2023-04-10T20:43:12.438Z,19.30
2023-04-10T20:45:46.494Z,22.30
2023-04-10T20:48:22.452Z,23.00
2023-04-10T20:50:56.729Z,25.40
2023-04-10T20:53:30.865Z,22.50
2023-04-10T20:56:06.310Z,20.20
2023-04-10T20:58:40.349Z,21.40
2023-04-10T21:01:14.478Z,22.30
2023-04-10T21:03:48.408Z,20.60
2023-04-10T21:06:25.207Z,19.50
2023-04-10T21:11:34.012Z,21.60
2023-04-10T21:16:42.963Z,19.70
2023-04-10T21:21:50.610Z,19.50
2023-04-10T21:24:25.400Z,18.80
2023-04-10T21:26:59.410Z,22.00
2023-04-10T21:29:34.433Z,18.60
2023-04-10T21:32:11.825Z,17.20
2023-04-10T21:34:50.523Z,22.60
2023-04-10T21:37:28.549Z,19.60
2023-04-10T21:40:05.743Z,22.80
2023-04-10T21:42:42.234Z,23.60
2023-04-10T21:45:17.681Z,22.20
2023-04-10T21:47:52.185Z,22.20
2023-04-10T21:50:27.405Z,19.60
2023-04-10T21:53:01.229Z,21.60
2023-04-10T21:55:38.527Z,19.90
2023-04-10T21:58:14.840Z,21.50
2023-04-10T22:00:51.981Z,23.30
2023-04-10T22:03:27.758Z,23.20
2023-04-10T22:06:03.286Z,21.30
2023-04-10T22:08:41.662Z,19.70
2023-04-10T22:11:16.113Z,21.40
2023-04-10T22:13:50.121Z,20.20
2023-04-10T22:16:24.588Z,19.70
2023-04-10T22:18:58.777Z,18.20
2023-04-10T22:21:32.857Z,17.00
2023-04-10T22:24:07.009Z,17.90
2023-04-10T22:26:42.617Z,18.80
2023-04-10T22:29:16.716Z,22.60
2023-04-10T22:31:50.684Z,20.20
2023-04-10T22:34:24.149Z,17.40
2023-04-10T22:36:58.197Z,19.20
2023-04-10T22:39:32.225Z,16.30
2023-04-10T22:42:06.085Z,18.20
2023-04-10T22:44:39.903Z,21.20
2023-04-10T22:47:14.188Z,16.40
2023-04-10T22:49:47.835Z,25.90
2023-04-10T22:52:21.781Z,21.00
2023-04-10T22:54:55.552Z,19.80
2023-04-10T22:57:29.548Z,22.40
2023-04-10T23:00:04.360Z,18.60
2023-04-10T23:02:38.775Z,19.20
2023-04-10T23:05:13.367Z,19.50
2023-04-10T23:07:47.132Z,22.40
2023-04-10T23:10:21.994Z,21.90
2023-04-10T23:12:56.078Z,20.90
2023-04-10T23:15:29.848Z,20.60
2023-04-10T23:18:04.288Z,19.70
2023-04-10T23:20:38.998Z,19.50
2023-04-10T23:23:12.908Z,20.10
2023-04-10T23:25:46.543Z,20.90
2023-04-10T23:28:20.283Z,27.00
2023-04-10T23:30:53.929Z,23.10
2023-04-10T23:33:27.756Z,22.80
2023-04-10T23:36:01.520Z,22.70
2023-04-10T23:38:35.288Z,24.70
2023-04-10T23:41:09.727Z,23.40
2023-04-10T23:43:43.590Z,20.70
2023-04-10T23:46:17.652Z,21.10
2023-04-10T23:48:52.175Z,22.20
2023-04-10T23:51:27.364Z,23.60
2023-04-10T23:54:01.197Z,19.70
2023-04-10T23:56:35.255Z,21.30
2023-04-10T23:59:08.937Z,22.20
